createdAt,value
2018-07-24T00:00:47.145Z,100942.15
2018-07-24T00:03:16.274Z,100943.80
2018-07-24T00:05:45.404Z,100936.64
2018-07-24T00:08:14.498Z,100936.13
2018-07-24T00:10:43.622Z,100937.96
2018-07-24T00:13:12.761Z,100933.75
2018-07-24T00:15:41.865Z,100941.92
2018-07-24T00:18:11.016Z,100935.86
2018-07-24T00:20:40.123Z,100930.84
2018-07-24T00:23:09.225Z,100932.12
2018-07-24T00:25:38.353Z,100923.47
2018-07-24T00:28:07.478Z,100930.25
2018-07-24T00:30:36.597Z,100929.93
2018-07-24T00:33:05.749Z,100924.19
2018-07-24T00:35:34.879Z,100928.80
2018-07-24T00:38:04.010Z,100923.65
2018-07-24T00:40:33.126Z,100921.27
2018-07-24T00:43:02.245Z,100925.77
2018-07-24T00:45:31.350Z,100927.48
2018-07-24T00:48:00.493Z,100923.05
2018-07-24T00:50:29.662Z,100919.22
2018-07-24T00:52:58.765Z,100922.86
2018-07-24T00:55:27.885Z,100919.98
2018-07-24T00:57:57.005Z,100921.52
2018-07-24T01:00:26.165Z,100924.77
2018-07-24T01:02:55.281Z,100921.91
2018-07-24T01:05:24.421Z,100917.81
2018-07-24T01:07:53.522Z,100919.24
2018-07-24T01:10:22.665Z,100914.66
2018-07-24T01:12:51.838Z,100911.21
2018-07-24T01:15:20.937Z,100900.23
2018-07-24T01:17:50.417Z,100905.65
2018-07-24T01:20:19.681Z,100901.42
2018-07-24T01:22:48.817Z,100912.61
2018-07-24T01:25:17.945Z,100909.48
2018-07-24T01:27:47.069Z,100905.73
2018-07-24T01:30:16.178Z,100893.28
2018-07-24T01:32:45.334Z,100895.98
2018-07-24T01:35:14.437Z,100906.78
2018-07-24T01:37:43.538Z,100901.05
2018-07-24T01:40:12.684Z,100897.83
2018-07-24T01:42:41.788Z,100904.80
2018-07-24T01:45:10.921Z,100901.13
2018-07-24T01:47:40.066Z,100904.91
2018-07-24T01:50:09.193Z,100903.34
2018-07-24T01:52:38.301Z,100900.00
2018-07-24T01:55:08.009Z,100899.70
2018-07-24T01:57:37.134Z,100898.98
2018-07-24T02:00:06.874Z,100902.53
2018-07-24T02:02:35.997Z,100902.13
2018-07-24T02:05:05.157Z,100901.55
2018-07-24T02:07:34.258Z,100896.47
2018-07-24T02:10:03.390Z,100890.03
2018-07-24T02:12:32.565Z,100891.17
2018-07-24T02:15:01.741Z,100887.15
2018-07-24T02:17:30.897Z,100882.52
2018-07-24T02:20:00.339Z,100879.86
2018-07-24T02:22:29.479Z,100886.95
2018-07-24T02:24:58.633Z,100877.47
2018-07-24T02:27:27.761Z,100881.79
2018-07-24T02:29:56.849Z,100879.35
2018-07-24T02:32:25.993Z,100884.88
2018-07-24T02:34:55.186Z,100884.88
2018-07-24T02:37:24.306Z,100877.59
2018-07-24T02:39:53.433Z,100876.54
2018-07-24T02:42:22.541Z,100885.25
2018-07-24T02:44:51.645Z,100885.31
2018-07-24T02:47:20.829Z,100886.85
2018-07-24T02:49:49.919Z,100885.35
2018-07-24T02:52:19.030Z,100882.84
2018-07-24T02:54:48.241Z,100884.27
2018-07-24T02:57:17.390Z,100881.64
2018-07-24T02:59:46.494Z,100881.12
2018-07-24T03:02:15.722Z,100884.41
2018-07-24T03:04:44.810Z,100881.14
2018-07-24T03:07:13.925Z,100882.50
2018-07-24T03:09:43.035Z,100876.36
2018-07-24T03:12:12.146Z,100889.78
2018-07-24T03:14:41.276Z,100885.72
2018-07-24T03:17:10.397Z,100887.31
2018-07-24T03:19:39.498Z,100885.25
2018-07-24T03:22:08.594Z,100877.58
2018-07-24T03:24:37.717Z,100877.44
2018-07-24T03:27:06.830Z,100881.76
2018-07-24T03:29:35.948Z,100881.55
2018-07-24T03:32:05.061Z,100878.71
2018-07-24T03:34:34.182Z,100883.24
2018-07-24T03:37:03.333Z,100878.65
2018-07-24T03:39:32.461Z,100869.02
2018-07-24T03:42:01.546Z,100875.78
2018-07-24T03:44:30.685Z,100875.83
2018-07-24T03:46:59.817Z,100880.19
2018-07-24T03:49:28.913Z,100891.08
2018-07-24T03:51:58.082Z,100887.02
2018-07-24T03:54:27.168Z,100883.95
2018-07-24T03:56:56.289Z,100881.70
2018-07-24T03:59:25.409Z,100890.92
2018-07-24T04:01:54.518Z,100892.67
2018-07-24T04:04:23.626Z,100886.89
2018-07-24T04:06:52.782Z,100889.23
2018-07-24T04:09:21.977Z,100890.55
2018-07-24T04:11:51.102Z,100897.33
2018-07-24T04:14:20.226Z,100891.58
2018-07-24T04:16:49.313Z,100892.22
2018-07-24T04:19:18.417Z,100892.13
2018-07-24T04:21:47.553Z,100897.19
2018-07-24T04:24:16.663Z,100893.97
2018-07-24T04:26:45.779Z,100891.86
2018-07-24T04:29:14.930Z,100895.16
2018-07-24T04:31:44.106Z,100893.94
2018-07-24T04:34:13.206Z,100885.19
2018-07-24T04:36:42.315Z,100884.58
2018-07-24T04:39:11.438Z,100884.44
2018-07-24T04:41:40.546Z,100888.58
2018-07-24T04:44:09.677Z,100881.81
2018-07-24T04:46:38.777Z,100876.50
2018-07-24T04:49:07.881Z,100880.77
2018-07-24T04:51:37.013Z,100885.27
2018-07-24T04:54:06.210Z,100881.58
2018-07-24T04:56:35.325Z,100878.31
2018-07-24T04:59:04.504Z,100879.14
2018-07-24T05:01:33.605Z,100879.22
2018-07-24T05:04:02.719Z,100883.84
2018-07-24T05:06:31.857Z,100882.86
2018-07-24T05:09:00.957Z,100885.27
2018-07-24T05:11:30.201Z,100886.97
2018-07-24T05:13:59.334Z,100888.20
2018-07-24T05:16:28.449Z,100885.67
2018-07-24T05:18:57.547Z,100887.19
2018-07-24T05:21:26.676Z,100886.16
2018-07-24T05:23:55.786Z,100888.88
2018-07-24T05:26:24.905Z,100881.96
2018-07-24T05:28:54.025Z,100893.79
2018-07-24T05:31:23.182Z,100895.59
2018-07-24T05:33:52.297Z,100891.96
2018-07-24T05:36:21.451Z,100891.37
2018-07-24T05:38:50.626Z,100890.23
2018-07-24T05:41:19.693Z,100894.27
2018-07-24T05:43:48.853Z,100892.70
2018-07-24T05:46:18.072Z,100894.31
2018-07-24T05:48:47.223Z,100888.72
2018-07-24T05:51:16.361Z,100893.74
2018-07-24T05:53:45.563Z,100891.96
2018-07-24T05:56:14.881Z,100890.54
2018-07-24T05:58:44.106Z,100884.72
2018-07-24T06:01:13.213Z,100882.41
2018-07-24T06:03:42.412Z,100881.42
2018-07-24T06:06:11.590Z,100880.92
2018-07-24T06:08:40.788Z,100884.51
2018-07-24T06:11:10.079Z,100884.97
2018-07-24T06:13:39.179Z,100883.95
2018-07-24T06:16:08.308Z,100886.93
2018-07-24T06:18:37.397Z,100885.20
2018-07-24T06:21:06.518Z,100884.85
2018-07-24T06:23:35.687Z,100888.45
2018-07-24T06:26:04.775Z,100879.87
2018-07-24T06:28:33.897Z,100877.01
2018-07-24T06:31:03.087Z,100882.16
2018-07-24T06:33:32.266Z,100884.53
2018-07-24T06:36:01.502Z,100881.22
2018-07-24T06:38:30.602Z,100889.01
2018-07-24T06:40:59.725Z,100885.03
2018-07-24T06:43:28.860Z,100890.36
2018-07-24T06:45:57.961Z,100880.50
2018-07-24T06:48:27.074Z,100883.88
2018-07-24T06:50:56.341Z,100881.99
2018-07-24T06:53:25.502Z,100882.28
2018-07-24T06:55:54.614Z,100882.70
2018-07-24T06:58:23.821Z,100881.84
2018-07-24T07:00:52.954Z,100876.09
2018-07-24T07:03:22.133Z,100877.86
2018-07-24T07:05:51.188Z,100871.53
2018-07-24T07:08:20.301Z,100876.66
2018-07-24T07:10:49.449Z,100873.76
2018-07-24T07:13:18.616Z,100873.16
2018-07-24T07:15:47.670Z,100869.86
2018-07-24T07:18:16.795Z,100868.04
2018-07-24T07:20:45.925Z,100865.50
2018-07-24T07:23:15.079Z,100871.51
2018-07-24T07:25:44.165Z,100868.23
2018-07-24T07:28:13.301Z,100867.45
2018-07-24T07:30:42.410Z,100860.00
2018-07-24T07:33:11.517Z,100862.19
2018-07-24T07:35:40.641Z,100861.54
2018-07-24T07:38:09.757Z,100855.84
2018-07-24T07:40:38.878Z,100857.42
2018-07-24T07:43:08.037Z,100846.77
2018-07-24T07:45:37.145Z,100851.55
2018-07-24T07:48:06.393Z,100849.45
2018-07-24T07:50:35.534Z,100853.58
2018-07-24T07:53:04.645Z,100844.19
2018-07-24T07:55:33.769Z,100843.73
2018-07-24T07:58:02.891Z,100842.80
2018-07-24T08:00:32.122Z,100836.64
2018-07-24T08:03:01.224Z,100844.19
2018-07-24T08:05:30.390Z,100838.56
2018-07-24T08:07:59.486Z,100832.27
2018-07-24T08:10:28.609Z,100826.01
2018-07-24T08:12:57.738Z,100830.70
2018-07-24T08:15:26.857Z,100830.48
2018-07-24T08:17:56.005Z,100829.85
2018-07-24T08:20:25.118Z,100825.16
2018-07-24T08:22:54.257Z,100828.58
2018-07-24T08:25:23.373Z,100815.92
2018-07-24T08:27:52.561Z,100825.38
2018-07-24T08:30:21.701Z,100815.04
2018-07-24T08:32:51.087Z,100823.55
2018-07-24T08:35:20.267Z,100813.28
2018-07-24T08:37:49.444Z,100816.63
2018-07-24T08:40:18.609Z,100816.61
2018-07-24T08:42:47.734Z,100815.66
2018-07-24T08:45:16.885Z,100808.89
2018-07-24T08:47:46.022Z,100815.84
2018-07-24T08:50:15.165Z,100821.89
2018-07-24T08:52:44.324Z,100812.82
2018-07-24T08:55:13.752Z,100812.93
2018-07-24T08:57:43.096Z,100811.94
2018-07-24T09:00:12.161Z,100807.34
2018-07-24T09:02:42.197Z,100810.91
2018-07-24T09:05:11.349Z,100807.11
2018-07-24T09:07:40.518Z,100809.85
2018-07-24T09:10:09.731Z,100807.78
2018-07-24T09:12:38.801Z,100805.30
2018-07-24T09:15:07.943Z,100803.58
2018-07-24T09:17:37.053Z,100803.88
2018-07-24T09:20:06.157Z,100803.79
2018-07-24T09:22:35.547Z,100801.97
2018-07-24T09:25:04.742Z,100807.73
2018-07-24T09:27:33.884Z,100800.16
2018-07-24T09:30:03.018Z,100802.34
2018-07-24T09:32:32.192Z,100806.58
2018-07-24T09:35:01.574Z,100803.98
2018-07-24T09:37:32.271Z,100792.27
2018-07-24T09:40:01.509Z,100792.92
2018-07-24T09:42:30.685Z,100790.79
2018-07-24T09:44:59.833Z,100790.02
2018-07-24T09:47:28.963Z,100801.40
2018-07-24T09:49:58.077Z,100793.21
2018-07-24T09:52:28.238Z,100789.77
2018-07-24T09:54:57.410Z,100787.26
2018-07-24T09:57:26.600Z,100784.13
2018-07-24T09:59:55.730Z,100782.85
2018-07-24T10:02:28.060Z,100772.01
2018-07-24T10:04:57.157Z,100776.40
2018-07-24T10:07:26.315Z,100772.16
2018-07-24T10:09:55.453Z,100768.96
2018-07-24T10:12:24.632Z,100764.90
2018-07-24T10:14:53.790Z,100768.58
2018-07-24T10:17:23.001Z,100763.95
2018-07-24T10:19:52.215Z,100762.27
2018-07-24T10:22:31.570Z,100759.26
2018-07-24T10:25:00.706Z,100750.95
2018-07-24T10:27:29.850Z,100742.90
2018-07-24T10:29:59.033Z,100750.98
2018-07-24T10:32:28.292Z,100749.04
2018-07-24T10:34:57.493Z,100743.78
2018-07-24T10:37:26.694Z,100739.42
2018-07-24T10:39:55.918Z,100740.04
2018-07-24T10:42:26.212Z,100736.73
2018-07-24T10:44:57.425Z,100740.14
2018-07-24T10:47:27.640Z,100738.27
2018-07-24T10:49:56.906Z,100740.38
2018-07-24T10:52:30.399Z,100729.89
2018-07-24T10:54:59.526Z,100734.27
2018-07-24T10:57:28.694Z,100733.05
2018-07-24T10:59:58.041Z,100726.41
2018-07-24T11:02:31.339Z,100726.36
2018-07-24T11:05:00.533Z,100716.88
2018-07-24T11:07:29.649Z,100721.52
2018-07-24T11:09:58.775Z,100717.91
2018-07-24T11:12:27.902Z,100716.22
2018-07-24T11:14:57.074Z,100708.27
2018-07-24T11:17:27.360Z,100715.06
2018-07-24T11:19:57.327Z,100705.42
2018-07-24T11:22:26.516Z,100704.08
2018-07-24T11:24:55.617Z,100700.76
2018-07-24T11:27:24.787Z,100702.14
2018-07-24T11:29:54.093Z,100700.95
2018-07-24T11:32:23.197Z,100697.64
2018-07-24T11:34:52.310Z,100694.39
2018-07-24T11:37:21.467Z,100687.30
2018-07-24T11:39:50.625Z,100685.41
2018-07-24T11:42:19.806Z,100682.17
2018-07-24T11:44:49.061Z,100683.66
2018-07-24T11:47:18.166Z,100682.43
2018-07-24T11:49:47.330Z,100669.52
2018-07-24T11:52:16.442Z,100683.27
2018-07-24T11:54:45.549Z,100673.55
2018-07-24T11:57:14.694Z,100677.34
2018-07-24T11:59:43.795Z,100666.61
2018-07-24T12:02:12.947Z,100663.38
2018-07-24T12:04:42.109Z,100667.11
2018-07-24T12:07:11.163Z,100660.13
2018-07-24T12:09:40.253Z,100655.16
2018-07-24T12:12:09.537Z,100660.75
2018-07-24T12:14:38.772Z,100662.34
2018-07-24T12:17:07.858Z,100663.26
2018-07-24T12:19:37.069Z,100663.30
2018-07-24T12:22:06.201Z,100664.22
2018-07-24T12:24:35.311Z,100650.95
2018-07-24T12:27:04.556Z,100656.95
2018-07-24T12:29:33.695Z,100651.69
2018-07-24T12:32:02.837Z,100642.12
2018-07-24T12:34:31.998Z,100645.54
2018-07-24T12:37:01.165Z,100637.30
2018-07-24T12:39:30.309Z,100643.15
2018-07-24T12:41:59.425Z,100641.73
2018-07-24T12:44:28.562Z,100636.41
2018-07-24T12:46:57.689Z,100637.62
2018-07-24T12:49:26.788Z,100639.64
2018-07-24T12:51:55.917Z,100633.25
2018-07-24T12:54:25.013Z,100627.94
2018-07-24T12:56:54.160Z,100625.08
2018-07-24T12:59:23.288Z,100622.45
2018-07-24T13:01:52.469Z,100618.31
2018-07-24T13:04:21.594Z,100631.66
2018-07-24T13:06:50.738Z,100625.88
2018-07-24T13:09:20.903Z,100620.53
2018-07-24T13:11:50.084Z,100623.08
2018-07-24T13:14:19.201Z,100617.72
2018-07-24T13:16:48.330Z,100610.11
2018-07-24T13:19:17.481Z,100609.30
2018-07-24T13:21:46.650Z,100613.03
2018-07-24T13:24:15.785Z,100606.52
2018-07-24T13:26:44.926Z,100602.69
2018-07-24T13:29:14.041Z,100599.30
2018-07-24T13:31:43.188Z,100602.05
2018-07-24T13:34:12.269Z,100600.70
2018-07-24T13:36:41.417Z,100605.66
2018-07-24T13:39:11.597Z,100592.09
2018-07-24T13:41:41.955Z,100599.66
2018-07-24T13:44:11.109Z,100594.31
2018-07-24T13:46:40.214Z,100593.06
2018-07-24T13:49:09.335Z,100588.15
2018-07-24T13:51:38.490Z,100589.39
2018-07-24T13:54:07.644Z,100583.97
2018-07-24T13:56:36.750Z,100582.45
2018-07-24T13:59:05.927Z,100586.25
2018-07-24T14:01:35.122Z,100579.57
2018-07-24T14:04:04.352Z,100581.72
2018-07-24T14:06:33.477Z,100581.02
2018-07-24T14:09:02.638Z,100582.17
2018-07-24T14:11:31.754Z,100567.39
2018-07-24T14:14:00.901Z,100572.34
2018-07-24T14:16:29.982Z,100568.16
2018-07-24T14:18:59.097Z,100572.81
2018-07-24T14:21:28.205Z,100567.50
2018-07-24T14:23:57.317Z,100563.80
2018-07-24T14:26:26.478Z,100558.06
2018-07-24T14:28:55.549Z,100557.41
2018-07-24T14:31:24.690Z,100560.28
2018-07-24T14:33:54.217Z,100556.55
2018-07-24T14:36:23.372Z,100558.13
2018-07-24T14:38:52.537Z,100553.31
2018-07-24T14:41:21.701Z,100554.77
2018-07-24T14:43:50.846Z,100553.05
2018-07-24T14:46:19.993Z,100547.05
2018-07-24T14:48:49.106Z,100545.70
2018-07-24T14:51:18.257Z,100549.89
2018-07-24T14:53:47.409Z,100545.28
2018-07-24T14:56:16.513Z,100538.41
2018-07-24T14:58:45.655Z,100542.05
2018-07-24T15:01:14.726Z,100538.81
2018-07-24T15:03:43.870Z,100540.91
2018-07-24T15:06:12.961Z,100538.26
2018-07-24T15:08:42.065Z,100536.48
2018-07-24T15:11:11.206Z,100533.84
2018-07-24T15:13:40.299Z,100535.02
2018-07-24T15:16:09.400Z,100532.52
2018-07-24T15:18:38.534Z,100528.00
2018-07-24T15:21:07.849Z,100535.38
2018-07-24T15:23:36.921Z,100531.93
2018-07-24T15:26:06.095Z,100521.67
2018-07-24T15:28:35.248Z,100525.56
2018-07-24T15:31:04.357Z,100525.16
2018-07-24T15:33:33.502Z,100520.90
2018-07-24T15:36:02.578Z,100521.46
2018-07-24T15:38:31.702Z,100518.70
2018-07-24T15:41:00.793Z,100513.06
2018-07-24T15:43:29.961Z,100516.16
2018-07-24T15:45:59.149Z,100517.16
2018-07-24T15:48:28.263Z,100507.55
2018-07-24T15:50:57.421Z,100507.73
2018-07-24T15:53:26.632Z,100504.35
2018-07-24T15:55:55.844Z,100503.58
2018-07-24T15:58:25.081Z,100506.64
2018-07-24T16:00:54.465Z,100501.13
2018-07-24T16:03:23.747Z,100499.16
2018-07-24T16:05:53.143Z,100505.50
2018-07-24T16:08:22.906Z,100499.17
2018-07-24T16:10:52.445Z,100497.83
2018-07-24T16:13:21.997Z,100494.37
2018-07-24T16:15:52.231Z,100496.80
2018-07-24T16:18:22.381Z,100501.48
2018-07-24T16:20:52.437Z,100491.58
2018-07-24T16:23:21.958Z,100491.92
2018-07-24T16:25:51.360Z,100496.95
2018-07-24T16:28:21.101Z,100490.09
2018-07-24T16:30:50.642Z,100493.22
2018-07-24T16:33:20.158Z,100499.82
2018-07-24T16:35:51.711Z,100491.91
2018-07-24T16:38:22.768Z,100495.95
2018-07-24T16:40:52.631Z,100492.93
2018-07-24T16:43:22.264Z,100498.41
2018-07-24T16:45:51.866Z,100486.50
2018-07-24T16:48:21.329Z,100487.46
2018-07-24T16:50:50.961Z,100493.84
2018-07-24T16:53:20.557Z,100496.91
2018-07-24T16:55:52.735Z,100486.11
2018-07-24T16:58:22.328Z,100493.75
2018-07-24T17:00:52.327Z,100484.00
2018-07-24T17:03:22.289Z,100485.34
2018-07-24T17:05:52.028Z,100482.24
2018-07-24T17:08:21.686Z,100484.45
2018-07-24T17:10:51.038Z,100488.68
2018-07-24T17:13:20.721Z,100482.39
2018-07-24T17:15:50.164Z,100476.66
2018-07-24T17:18:19.991Z,100481.30
2018-07-24T17:20:49.723Z,100475.92
2018-07-24T17:23:20.719Z,100481.81
2018-07-24T17:25:50.676Z,100486.29
2018-07-24T17:28:19.902Z,100480.11
2018-07-24T17:30:51.460Z,100477.12
2018-07-24T17:33:24.083Z,100482.73
2018-07-24T17:35:53.224Z,100482.13
2018-07-24T17:38:22.449Z,100479.38
2018-07-24T17:40:51.710Z,100484.32
2018-07-24T17:43:20.876Z,100484.17
2018-07-24T17:45:50.288Z,100487.47
2018-07-24T17:48:19.526Z,100485.14
2018-07-24T17:50:48.738Z,100487.34
2018-07-24T17:53:18.001Z,100485.74
2018-07-24T17:55:47.165Z,100489.71
2018-07-24T17:58:16.250Z,100489.03
2018-07-24T18:00:45.371Z,100487.30
2018-07-24T18:03:14.460Z,100490.18
2018-07-24T18:05:43.565Z,100491.03
2018-07-24T18:08:12.693Z,100489.30
2018-07-24T18:10:41.780Z,100497.86
2018-07-24T18:13:10.898Z,100499.56
2018-07-24T18:15:40.013Z,100498.24
2018-07-24T18:18:09.167Z,100494.85
2018-07-24T18:20:38.260Z,100492.38
2018-07-24T18:23:07.385Z,100497.41
2018-07-24T18:25:36.508Z,100503.36
2018-07-24T18:28:05.712Z,100496.02
2018-07-24T18:30:34.869Z,100498.77
2018-07-24T18:33:04.022Z,100494.98
2018-07-24T18:35:33.129Z,100500.12
2018-07-24T18:38:02.222Z,100499.14
2018-07-24T18:40:31.320Z,100503.03
2018-07-24T18:43:00.421Z,100502.67
2018-07-24T18:45:29.528Z,100501.80
2018-07-24T18:47:58.617Z,100502.44
2018-07-24T18:50:27.702Z,100503.36
2018-07-24T18:52:56.823Z,100508.14
2018-07-24T18:55:25.913Z,100509.21
2018-07-24T18:57:55.014Z,100511.34
2018-07-24T19:00:24.105Z,100512.09
2018-07-24T19:02:53.470Z,100512.58
2018-07-24T19:05:22.604Z,100518.42
2018-07-24T19:07:51.748Z,100514.36
2018-07-24T19:10:20.877Z,100514.47
2018-07-24T19:12:50.373Z,100515.98
2018-07-24T19:15:19.497Z,100515.08
2018-07-24T19:17:48.610Z,100515.53
2018-07-24T19:20:17.701Z,100521.72
2018-07-24T19:22:46.821Z,100528.11
2018-07-24T19:25:15.918Z,100528.86
2018-07-24T19:27:45.101Z,100528.04
2018-07-24T19:30:14.257Z,100534.94
2018-07-24T19:32:43.569Z,100533.52
2018-07-24T19:35:12.668Z,100535.45
2018-07-24T19:37:41.773Z,100537.53
2018-07-24T19:40:10.937Z,100540.67
2018-07-24T19:42:40.313Z,100544.81
2018-07-24T19:45:09.441Z,100546.67
2018-07-24T19:47:38.575Z,100548.62
2018-07-24T19:50:07.721Z,100551.85
2018-07-24T19:52:37.953Z,100553.92
2018-07-24T19:55:07.074Z,100554.88
2018-07-24T19:57:36.153Z,100558.75
2018-07-24T20:00:06.965Z,100556.80
2018-07-24T20:02:36.126Z,100565.92
2018-07-24T20:05:05.270Z,100558.52
2018-07-24T20:07:34.389Z,100566.37
2018-07-24T20:10:04.829Z,100571.04
2018-07-24T20:12:33.993Z,100566.91
2018-07-24T20:15:03.230Z,100577.58
2018-07-24T20:17:32.337Z,100570.19
2018-07-24T20:20:07.008Z,100576.02
2018-07-24T20:22:36.128Z,100566.80
2018-07-24T20:25:05.557Z,100571.80
2018-07-24T20:27:34.753Z,100574.01
2018-07-24T20:30:04.022Z,100583.79
2018-07-24T20:32:33.165Z,100579.92
2018-07-24T20:35:02.308Z,100583.39
2018-07-24T20:37:31.365Z,100580.50
2018-07-24T20:40:00.485Z,100587.32
2018-07-24T20:42:29.581Z,100582.45
2018-07-24T20:44:58.705Z,100580.45
2018-07-24T20:47:27.821Z,100589.19
2018-07-24T20:49:56.913Z,100580.01
2018-07-24T20:52:26.077Z,100577.16
2018-07-24T20:54:55.202Z,100580.33
2018-07-24T20:57:24.282Z,100579.84
2018-07-24T20:59:53.390Z,100572.67
2018-07-24T21:02:22.480Z,100578.58
2018-07-24T21:04:51.721Z,100581.16
2018-07-24T21:07:20.877Z,100583.17
2018-07-24T21:09:50.090Z,100581.89
2018-07-24T21:12:19.379Z,100580.99
2018-07-24T21:14:48.570Z,100588.95
2018-07-24T21:17:17.877Z,100587.62
2018-07-24T21:19:47.077Z,100586.52
2018-07-24T21:22:16.189Z,100585.79
2018-07-24T21:24:45.284Z,100585.05
2018-07-24T21:27:14.412Z,100584.31
2018-07-24T21:29:43.597Z,100586.81
2018-07-24T21:32:12.797Z,100588.41
2018-07-24T21:34:42.017Z,100583.24
2018-07-24T21:37:11.023Z,100595.71
2018-07-24T21:39:40.093Z,100598.81
2018-07-24T21:42:09.257Z,100597.73
2018-07-24T21:44:38.367Z,100597.44
2018-07-24T21:47:07.506Z,100603.73
2018-07-24T21:49:36.618Z,100602.97
2018-07-24T21:52:05.705Z,100602.71
2018-07-24T21:54:34.808Z,100599.75
2018-07-24T21:57:03.928Z,100603.77
2018-07-24T21:59:33.014Z,100601.93
2018-07-24T22:02:02.134Z,100598.92
2018-07-24T22:04:31.237Z,100602.23
2018-07-24T22:07:00.325Z,100599.39
2018-07-24T22:09:29.425Z,100602.44
2018-07-24T22:11:58.549Z,100605.63
2018-07-24T22:14:27.641Z,100613.63
2018-07-24T22:16:56.752Z,100616.27
2018-07-24T22:19:25.900Z,100614.45
2018-07-24T22:21:54.929Z,100609.25
2018-07-24T22:24:24.025Z,100612.50
2018-07-24T22:26:53.257Z,100612.05
2018-07-24T22:29:22.597Z,100611.73
2018-07-24T22:31:51.744Z,100612.87
2018-07-24T22:34:20.853Z,100617.77
2018-07-24T22:36:49.958Z,100619.58
2018-07-24T22:39:19.040Z,100620.44
2018-07-24T22:41:48.129Z,100620.83
2018-07-24T22:44:17.224Z,100612.47
2018-07-24T22:46:46.333Z,100615.52
2018-07-24T22:49:15.414Z,100614.01
2018-07-24T22:51:44.555Z,100621.52
2018-07-24T22:54:13.636Z,100627.01
2018-07-24T22:56:42.763Z,100629.36
2018-07-24T22:59:11.830Z,100634.01
2018-07-24T23:01:40.909Z,100637.20
2018-07-24T23:04:10.017Z,100630.70
2018-07-24T23:06:39.129Z,100631.72
2018-07-24T23:09:09.813Z,100629.67
2018-07-24T23:11:39.229Z,100630.39
2018-07-24T23:14:08.325Z,100629.27
2018-07-24T23:16:37.421Z,100639.08
2018-07-24T23:19:06.506Z,100631.34
2018-07-24T23:21:35.605Z,100630.86
2018-07-24T23:24:04.694Z,100633.05
2018-07-24T23:26:33.782Z,100632.20
2018-07-24T23:29:02.882Z,100634.53
2018-07-24T23:31:31.993Z,100629.05
2018-07-24T23:34:01.104Z,100633.77
2018-07-24T23:36:30.349Z,100634.75
2018-07-24T23:38:59.432Z,100634.47
2018-07-24T23:41:28.528Z,100629.23
2018-07-24T23:43:57.621Z,100629.16
2018-07-24T23:46:26.737Z,100623.53
2018-07-24T23:48:55.829Z,100632.75
2018-07-24T23:51:24.914Z,100631.39
2018-07-24T23:53:54.009Z,100635.83
2018-07-24T23:56:23.117Z,100628.98
2018-07-24T23:58:52.242Z,100633.81
